Pagina principale
METAR-TAF:

METAR-TAF

Aeroporti :

Dübendorf, Svizzera

latitudine: 47-23-55N, longitudine: 8-38-53E, altezza: 448 m

Osservazione

Il bollettino è stato emesso 39 minuti fa, alle 19:50 UTC
Vento 3 kt da direzioni variabili
Temperature 12°C
Umidità 100%
Pressione 1013 hPa
Visibilità 10 km o più
Poco nuvoloso ad un'altezza di 2100 ft
Nuvoloso ad un'altezza di 2400 ft
Cielo coperto ad un'altezza di 6500 ft
pioggia

METAR: LSMD 251950Z AUTO VRB03KT 9999NDV RA FEW021 BKN024 OVC065 12/12 Q1013 RERA RMK

Ora: 22:29 (20:29 UTC)


TAF: mancante

Osservazioni e previsioni meteorologiche di più di 4000 aeroporti (messaggi METAR e TAF).

Le stazioni disponibili sono rappresentate dai dischi gialli e rossi sulla carta.

Puntare il mouse per vedere il nome della stazione.

Clicca sopra per visualizzare le osservazioni e previsioni meteorologiche.

Per cambiare la mappa : fare clic sui pulsanti verdi con una croce nera per ingrandire, il pulsante verde con un trattino per diminuire, o sulla freccia verde per le mappe adiacenti.


METAR-TAF: